sensor_id;sensor_type;location;lat;lon;timestamp;pressure;altitude;pressure_sealevel;temperature;humidity
12211;BME280;6168;42.658;23.298;2022-09-09T00:00:58;64375.88;;;-139.92;100.00
12211;BME280;6168;42.658;23.298;2022-09-09T00:03:29;64407.13;;;-139.92;100.00
12211;BME280;6168;42.658;23.298;2022-09-09T00:06:04;64371.72;;;-139.92;100.00
12211;BME280;6168;42.658;23.298;2022-09-09T00:08:45;64369.63;;;-139.92;100.00
12211;BME280;6168;42.658;23.298;2022-09-09T00:11:24;64415.44;;;-139.92;100.00
12211;BME280;6168;42.658;23.298;2022-09-09T00:13:53;64390.47;;;-139.92;100.00
12211;BME280;6168;42.658;23.298;2022-09-09T00:16:24;64377.97;;;-139.92;100.00
12211;BME280;6168;42.658;23.298;2022-09-09T00:18:59;64436.28;;;-139.92;100.00
12211;BME280;6168;42.658;23.298;2022-09-09T00:21:33;64384.22;;;-139.92;100.00
12211;BME280;6168;42.658;23.298;2022-09-09T00:24:09;64430.03;;;-139.92;100.00
12211;BME280;6168;42.658;23.298;2022-09-09T00:26:42;64380.06;;;-139.92;100.00
12211;BME280;6168;42.658;23.298;2022-09-09T00:29:19;64407.13;;;-139.92;100.00
12211;BME280;6168;42.658;23.298;2022-09-09T00:31:50;64375.88;;;-139.92;100.00
12211;BME280;6168;42.658;23.298;2022-09-09T00:34:23;64377.97;;;-139.92;100.00
12211;BME280;6168;42.658;23.298;2022-09-09T00:36:53;64402.97;;;-139.92;100.00
12211;BME280;6168;42.658;23.298;2022-09-09T00:39:26;64415.44;;;-139.92;100.00
12211;BME280;6168;42.658;23.298;2022-09-09T00:42:02;64400.88;;;-139.92;100.00
12211;BME280;6168;42.658;23.298;2022-09-09T00:44:41;64432.13;;;-139.92;100.00
12211;BME280;6168;42.658;23.298;2022-09-09T00:47:25;64357.16;;;-139.92;100.00
12211;BME280;6168;42.658;23.298;2022-09-09T00:50:03;64369.63;;;-139.92;100.00
12211;BME280;6168;42.658;23.298;2022-09-09T00:52:42;64352.97;;;-139.92;100.00
12211;BME280;6168;42.658;23.298;2022-09-09T00:55:17;64405.03;;;-139.92;100.00
12211;BME280;6168;42.658;23.298;2022-09-09T00:57:50;64382.13;;;-139.92;100.00
12211;BME280;6168;42.658;23.298;2022-09-09T01:00:22;64411.28;;;-139.92;100.00
12211;BME280;6168;42.658;23.298;2022-09-09T01:03:02;64361.31;;;-139.92;100.00
12211;BME280;6168;42.658;23.298;2022-09-09T01:05:36;64415.44;;;-139.92;100.00
12211;BME280;6168;42.658;23.298;2022-09-09T01:08:15;64407.13;;;-139.92;100.00
12211;BME280;6168;42.658;23.298;2022-09-09T01:10:50;64405.03;;;-139.92;100.00
12211;BME280;6168;42.658;23.298;2022-09-09T01:13:24;64377.97;;;-139.92;100.00
12211;BME280;6168;42.658;23.298;2022-09-09T01:15:53;64405.03;;;-139.92;100.00
12211;BME280;6168;42.658;23.298;2022-09-09T01:18:22;64407.13;;;-139.92;100.00
12211;BME280;6168;42.658;23.298;2022-09-09T01:20:57;64427.94;;;-139.92;100.00
12211;BME280;6168;42.658;23.298;2022-09-09T01:23:41;64384.22;;;-139.92;100.00
12211;BME280;6168;42.658;23.298;2022-09-09T01:26:28;64392.53;;;-139.92;100.00
12211;BME280;6168;42.658;23.298;2022-09-09T01:28:57;64402.97;;;-139.92;100.00
12211;BME280;6168;42.658;23.298;2022-09-09T01:31:28;64400.88;;;-139.92;100.00
12211;BME280;6168;42.658;23.298;2022-09-09T01:33:57;64415.44;;;-139.92;100.00
12211;BME280;6168;42.658;23.298;2022-09-09T01:36:33;64461.25;;;-139.92;100.00
12211;BME280;6168;42.658;23.298;2022-09-09T01:39:02;64390.47;;;-139.92;100.00
12211;BME280;6168;42.658;23.298;2022-09-09T01:41:30;64419.63;;;-139.92;100.00
12211;BME280;6168;42.658;23.298;2022-09-09T01:43:57;64355.06;;;-139.92;100.00
12211;BME280;6168;42.658;23.298;2022-09-09T01:46:24;64373.81;;;-139.92;100.00
12211;BME280;6168;42.658;23.298;2022-09-09T01:48:52;64394.63;;;-139.92;100.00
12211;BME280;6168;42.658;23.298;2022-09-09T01:51:19;64411.28;;;-139.92;100.00
12211;BME280;6168;42.658;23.298;2022-09-09T01:53:46;64415.44;;;-139.92;100.00
12211;BME280;6168;42.658;23.298;2022-09-09T01:56:22;64394.63;;;-139.92;100.00
12211;BME280;6168;42.658;23.298;2022-09-09T01:59:08;64411.28;;;-139.92;100.00
12211;BME280;6168;42.658;23.298;2022-09-09T02:01:53;64421.69;;;-139.92;100.00
12211;BME280;6168;42.658;23.298;2022-09-09T02:04:35;64409.22;;;-139.92;100.00
12211;BME280;6168;42.658;23.298;2022-09-09T02:07:08;64400.88;;;-139.92;100.00
12211;BME280;6168;42.658;23.298;2022-09-09T02:09:36;64398.78;;;-139.92;100.00
12211;BME280;6168;42.658;23.298;2022-09-09T02:12:08;64413.38;;;-139.92;100.00
12211;BME280;6168;42.658;23.298;2022-09-09T02:14:42;64394.63;;;-139.92;100.00
12211;BME280;6168;42.658;23.298;2022-09-09T02:17:16;64415.44;;;-139.92;100.00
12211;BME280;6168;42.658;23.298;2022-09-09T02:19:49;64432.13;;;-139.92;100.00
12211;BME280;6168;42.658;23.298;2022-09-09T02:22:20;64407.13;;;-139.92;100.00
12211;BME280;6168;42.658;23.298;2022-09-09T02:24:50;64427.94;;;-139.92;100.00
12211;BME280;6168;42.658;23.298;2022-09-09T02:27:19;64421.69;;;-139.92;100.00
12211;BME280;6168;42.658;23.298;2022-09-09T02:29:49;64409.22;;;-139.92;100.00
12211;BME280;6168;42.658;23.298;2022-09-09T02:32:19;64425.88;;;-139.92;100.00
12211;BME280;6168;42.658;23.298;2022-09-09T02:34:49;64402.97;;;-139.92;100.00
12211;BME280;6168;42.658;23.298;2022-09-09T02:37:19;64392.53;;;-139.92;100.00
12211;BME280;6168;42.658;23.298;2022-09-09T02:39:46;64396.72;;;-139.92;100.00
12211;BME280;6168;42.658;23.298;2022-09-09T02:42:13;64455.03;;;-139.92;100.00
12211;BME280;6168;42.658;23.298;2022-09-09T02:44:41;64421.69;;;-139.92;100.00
12211;BME280;6168;42.658;23.298;2022-09-09T02:47:26;64427.94;;;-139.92;100.00
12211;BME280;6168;42.658;23.298;2022-09-09T02:50:03;64375.88;;;-139.92;100.00
12211;BME280;6168;42.658;23.298;2022-09-09T02:52:38;64425.88;;;-139.92;100.00
12211;BME280;6168;42.658;23.298;2022-09-09T02:55:16;64415.44;;;-139.92;100.00
12211;BME280;6168;42.658;23.298;2022-09-09T02:57:45;64425.88;;;-139.92;100.00
12211;BME280;6168;42.658;23.298;2022-09-09T03:00:14;64421.69;;;-139.92;100.00
12211;BME280;6168;42.658;23.298;2022-09-09T03:02:42;64419.63;;;-139.92;100.00
12211;BME280;6168;42.658;23.298;2022-09-09T03:05:10;64398.78;;;-139.92;100.00
12211;BME280;6168;42.658;23.298;2022-09-09T03:07:38;64442.53;;;-139.92;100.00
12211;BME280;6168;42.658;23.298;2022-09-09T03:10:06;64415.44;;;-139.92;100.00
12211;BME280;6168;42.658;23.298;2022-09-09T03:12:33;64400.88;;;-139.92;100.00
12211;BME280;6168;42.658;23.298;2022-09-09T03:15:00;64450.84;;;-139.92;100.00
12211;BME280;6168;42.658;23.298;2022-09-09T03:17:27;64436.28;;;-139.92;100.00
12211;BME280;6168;42.658;23.298;2022-09-09T03:19:55;64388.38;;;-139.92;100.00
12211;BME280;6168;42.658;23.298;2022-09-09T03:22:24;64423.78;;;-139.92;100.00
12211;BME280;6168;42.658;23.298;2022-09-09T03:25:08;64430.03;;;-139.92;100.00
12211;BME280;6168;42.658;23.298;2022-09-09T03:27:35;64423.78;;;-139.92;100.00
12211;BME280;6168;42.658;23.298;2022-09-09T03:30:02;64430.03;;;-139.92;100.00
12211;BME280;6168;42.658;23.298;2022-09-09T03:32:30;64442.53;;;-139.92;100.00
12211;BME280;6168;42.658;23.298;2022-09-09T03:34:58;64421.69;;;-139.92;100.00
12211;BME280;6168;42.658;23.298;2022-09-09T03:37:25;64413.38;;;-139.92;100.00
12211;BME280;6168;42.658;23.298;2022-09-09T03:39:52;64409.22;;;-139.92;100.00
12211;BME280;6168;42.658;23.298;2022-09-09T03:42:20;64417.53;;;-139.92;100.00
12211;BME280;6168;42.658;23.298;2022-09-09T03:44:47;64415.44;;;-139.92;100.00
12211;BME280;6168;42.658;23.298;2022-09-09T03:47:16;64371.72;;;-139.92;100.00
12211;BME280;6168;42.658;23.298;2022-09-09T03:49:45;64432.13;;;-139.92;100.00
12211;BME280;6168;42.658;23.298;2022-09-09T03:52:14;64423.78;;;-139.92;100.00
12211;BME280;6168;42.658;23.298;2022-09-09T03:54:41;64434.19;;;-139.92;100.00
12211;BME280;6168;42.658;23.298;2022-09-09T03:57:09;64452.94;;;-139.92;100.00
12211;BME280;6168;42.658;23.298;2022-09-09T03:59:36;64436.28;;;-139.92;100.00
12211;BME280;6168;42.658;23.298;2022-09-09T04:02:04;64415.44;;;-139.92;100.00
12211;BME280;6168;42.658;23.298;2022-09-09T04:04:31;64427.94;;;-139.92;100.00
12211;BME280;6168;42.658;23.298;2022-09-09T04:06:57;64405.03;;;-139.92;100.00
12211;BME280;6168;42.658;23.298;2022-09-09T04:09:26;64434.19;;;-139.92;100.00
12211;BME280;6168;42.658;23.298;2022-09-09T04:11:52;64436.28;;;-139.92;100.00
12211;BME280;6168;42.658;23.298;2022-09-09T04:14:20;64430.03;;;-139.92;100.00
12211;BME280;6168;42.658;23.298;2022-09-09T04:16:47;64450.84;;;-139.92;100.00
12211;BME280;6168;42.658;23.298;2022-09-09T04:19:14;64442.53;;;-139.92;100.00
12211;BME280;6168;42.658;23.298;2022-09-09T04:21:41;64448.78;;;-139.92;100.00
12211;BME280;6168;42.658;23.298;2022-09-09T04:24:08;64446.69;;;-139.92;100.00
12211;BME280;6168;42.658;23.298;2022-09-09T04:26:37;64448.78;;;-139.92;100.00
12211;BME280;6168;42.658;23.298;2022-09-09T04:29:04;64473.75;;;-139.92;100.00
12211;BME280;6168;42.658;23.298;2022-09-09T04:31:33;64407.13;;;-139.92;100.00
12211;BME280;6168;42.658;23.298;2022-09-09T04:34:00;64425.88;;;-139.92;100.00
12211;BME280;6168;42.658;23.298;2022-09-09T04:36:31;64417.53;;;-139.92;100.00
12211;BME280;6168;42.658;23.298;2022-09-09T04:38:58;64434.19;;;-139.92;100.00
12211;BME280;6168;42.658;23.298;2022-09-09T04:41:25;64427.94;;;-139.92;100.00
12211;BME280;6168;42.658;23.298;2022-09-09T04:43:53;64367.56;;;-139.92;100.00
12211;BME280;6168;42.658;23.298;2022-09-09T04:46:20;64348.81;;;-139.92;100.00
12211;BME280;6168;42.658;23.298;2022-09-09T04:48:48;64425.88;;;-139.92;100.00
12211;BME280;6168;42.658;23.298;2022-09-09T04:51:15;64400.88;;;-139.92;100.00
12211;BME280;6168;42.658;23.298;2022-09-09T04:53:42;64367.56;;;-139.92;100.00
12211;BME280;6168;42.658;23.298;2022-09-09T04:56:10;64402.97;;;-139.92;100.00
12211;BME280;6168;42.658;23.298;2022-09-09T04:58:38;64411.28;;;-139.92;100.00
12211;BME280;6168;42.658;23.298;2022-09-09T05:01:09;64384.22;;;-139.92;100.00
12211;BME280;6168;42.658;23.298;2022-09-09T05:03:37;64432.13;;;-139.92;100.00
12211;BME280;6168;42.658;23.298;2022-09-09T05:06:06;64365.47;;;-139.92;100.00
12211;BME280;6168;42.658;23.298;2022-09-09T05:08:34;64402.97;;;-139.92;100.00
12211;BME280;6168;42.658;23.298;2022-09-09T05:11:00;64388.38;;;-139.92;100.00
12211;BME280;6168;42.658;23.298;2022-09-09T05:13:28;64390.47;;;-139.92;100.00
12211;BME280;6168;42.658;23.298;2022-09-09T05:15:57;64377.97;;;-139.92;100.00
12211;BME280;6168;42.658;23.298;2022-09-09T05:18:25;64400.88;;;-139.92;100.00
12211;BME280;6168;42.658;23.298;2022-09-09T05:20:52;64398.78;;;-139.92;100.00
12211;BME280;6168;42.658;23.298;2022-09-09T05:23:24;64382.13;;;-139.92;100.00
12211;BME280;6168;42.658;23.298;2022-09-09T05:25:58;64380.06;;;-139.92;100.00
12211;BME280;6168;42.658;23.298;2022-09-09T05:28:25;64338.41;;;-139.92;100.00
12211;BME280;6168;42.658;23.298;2022-09-09T05:30:56;64394.63;;;-139.92;100.00
12211;BME280;6168;42.658;23.298;2022-09-09T05:33:25;64340.50;;;-139.92;100.00
12211;BME280;6168;42.658;23.298;2022-09-09T05:35:56;64394.63;;;-139.92;100.00
12211;BME280;6168;42.658;23.298;2022-09-09T05:38:24;64375.88;;;-139.92;100.00
12211;BME280;6168;42.658;23.298;2022-09-09T05:40:51;64357.16;;;-139.92;100.00
12211;BME280;6168;42.658;23.298;2022-09-09T05:43:18;64338.41;;;-139.92;100.00
12211;BME280;6168;42.658;23.298;2022-09-09T05:45:46;64336.31;;;-139.92;100.00
12211;BME280;6168;42.658;23.298;2022-09-09T05:48:14;64380.06;;;-139.92;100.00
12211;BME280;6168;42.658;23.298;2022-09-09T05:50:43;64367.56;;;-139.92;100.00
12211;BME280;6168;42.658;23.298;2022-09-09T05:53:10;64373.81;;;-139.92;100.00
12211;BME280;6168;42.658;23.298;2022-09-09T05:55:37;64365.47;;;-139.92;100.00
12211;BME280;6168;42.658;23.298;2022-09-09T05:58:04;64307.16;;;-139.92;100.00
12211;BME280;6168;42.658;23.298;2022-09-09T06:00:31;64336.31;;;-139.92;100.00
12211;BME280;6168;42.658;23.298;2022-09-09T06:02:58;64334.25;;;-139.92;100.00
12211;BME280;6168;42.658;23.298;2022-09-09T06:05:25;64332.16;;;-139.92;100.00
12211;BME280;6168;42.658;23.298;2022-09-09T06:07:55;64330.06;;;-139.92;100.00
12211;BME280;6168;42.658;23.298;2022-09-09T06:10:22;64346.72;;;-139.92;100.00
12211;BME280;6168;42.658;23.298;2022-09-09T06:12:52;64311.34;;;-139.92;100.00
12211;BME280;6168;42.658;23.298;2022-09-09T06:15:19;64328.00;;;-139.92;100.00
12211;BME280;6168;42.658;23.298;2022-09-09T06:17:46;64332.16;;;-139.92;100.00
12211;BME280;6168;42.658;23.298;2022-09-09T06:20:12;64278.03;;;-139.92;100.00
12211;BME280;6168;42.658;23.298;2022-09-09T06:22:39;64300.94;;;-139.92;100.00
12211;BME280;6168;42.658;23.298;2022-09-09T06:25:08;64309.25;;;-139.92;100.00
12211;BME280;6168;42.658;23.298;2022-09-09T06:27:34;64315.50;;;-139.92;100.00
12211;BME280;6168;42.658;23.298;2022-09-09T06:30:01;64282.19;;;-139.92;100.00
12211;BME280;6168;42.658;23.298;2022-09-09T06:32:28;64315.50;;;-139.92;100.00
12211;BME280;6168;42.658;23.298;2022-09-09T06:34:55;64280.09;;;-139.92;100.00
12211;BME280;6168;42.658;23.298;2022-09-09T06:37:21;64315.50;;;-139.92;100.00
12211;BME280;6168;42.658;23.298;2022-09-09T06:39:49;64303.00;;;-139.92;100.00
12211;BME280;6168;42.658;23.298;2022-09-09T06:42:17;64305.09;;;-139.92;100.00
12211;BME280;6168;42.658;23.298;2022-09-09T06:44:44;64275.94;;;-139.92;100.00
12211;BME280;6168;42.658;23.298;2022-09-09T06:47:10;64338.41;;;-139.92;100.00
12211;BME280;6168;42.658;23.298;2022-09-09T06:49:37;64273.84;;;-139.92;100.00
12211;BME280;6168;42.658;23.298;2022-09-09T06:52:03;64275.94;;;-139.92;100.00
12211;BME280;6168;42.658;23.298;2022-09-09T06:54:30;64298.84;;;-139.92;100.00
12211;BME280;6168;42.658;23.298;2022-09-09T06:56:56;64307.16;;;-139.92;100.00
12211;BME280;6168;42.658;23.298;2022-09-09T06:59:26;64296.75;;;-139.92;100.00
12211;BME280;6168;42.658;23.298;2022-09-09T07:01:53;64232.22;;;-139.92;100.00
12211;BME280;6168;42.658;23.298;2022-09-09T07:04:20;64261.34;;;-139.92;100.00
12211;BME280;6168;42.658;23.298;2022-09-09T07:06:46;64265.53;;;-139.92;100.00
12211;BME280;6168;42.658;23.298;2022-09-09T07:09:13;64275.94;;;-139.92;100.00
12211;BME280;6168;42.658;23.298;2022-09-09T07:11:42;64259.28;;;-139.92;100.00
12211;BME280;6168;42.658;23.298;2022-09-09T07:14:09;64325.91;;;-139.92;100.00
12211;BME280;6168;42.658;23.298;2022-09-09T07:16:39;64296.75;;;-139.92;100.00
12211;BME280;6168;42.658;23.298;2022-09-09T07:19:05;64300.94;;;-139.92;100.00
12211;BME280;6168;42.658;23.298;2022-09-09T07:21:32;64269.69;;;-139.92;100.00
12211;BME280;6168;42.658;23.298;2022-09-09T07:23:59;64234.28;;;-139.92;100.00
12211;BME280;6168;42.658;23.298;2022-09-09T07:26:27;64257.19;;;-139.92;100.00
12211;BME280;6168;42.658;23.298;2022-09-09T07:28:54;64232.22;;;-139.92;100.00
12211;BME280;6168;42.658;23.298;2022-09-09T07:31:22;64286.34;;;-139.92;100.00
12211;BME280;6168;42.658;23.298;2022-09-09T07:33:51;64246.78;;;-139.92;100.00
12211;BME280;6168;42.658;23.298;2022-09-09T07:36:18;64269.69;;;-139.92;100.00
12211;BME280;6168;42.658;23.298;2022-09-09T07:38:47;64244.69;;;-139.92;100.00
12211;BME280;6168;42.658;23.298;2022-09-09T07:41:15;64236.38;;;-139.92;100.00
12211;BME280;6168;42.658;23.298;2022-09-09T07:43:43;64234.28;;;-139.92;100.00
12211;BME280;6168;42.658;23.298;2022-09-09T07:46:10;64200.97;;;-139.92;100.00
12211;BME280;6168;42.658;23.298;2022-09-09T07:48:37;64253.03;;;-139.92;100.00
12211;BME280;6168;42.658;23.298;2022-09-09T07:51:08;64225.97;;;-139.92;100.00
12211;BME280;6168;42.658;23.298;2022-09-09T07:53:36;64221.78;;;-139.92;100.00
12211;BME280;6168;42.658;23.298;2022-09-09T07:56:05;64234.28;;;-139.92;100.00
12211;BME280;6168;42.658;23.298;2022-09-09T07:58:33;64236.38;;;-139.92;100.00
12211;BME280;6168;42.658;23.298;2022-09-09T08:00:59;64209.31;;;-139.92;87.32
12211;BME280;6168;42.658;23.298;2022-09-09T08:03:26;64207.22;;;-139.92;89.63
12211;BME280;6168;42.658;23.298;2022-09-09T08:06:00;64190.56;;;-139.92;87.45
12211;BME280;6168;42.658;23.298;2022-09-09T08:08:28;64207.22;;;-139.92;82.41
12211;BME280;6168;42.658;23.298;2022-09-09T08:11:02;64207.22;;;-139.92;82.24
12211;BME280;6168;42.658;23.298;2022-09-09T08:13:30;64238.44;;;-139.92;78.34
12211;BME280;6168;42.658;23.298;2022-09-09T08:16:04;64203.06;;;-139.92;77.74
12211;BME280;6168;42.658;23.298;2022-09-09T08:18:32;64182.22;;;-139.92;77.20
12211;BME280;6168;42.658;23.298;2022-09-09T08:21:05;64148.91;;;-139.92;75.96
12211;BME280;6168;42.658;23.298;2022-09-09T08:23:33;64178.06;;;-139.92;78.46
12211;BME280;6168;42.658;23.298;2022-09-09T08:26:05;64180.16;;;-139.92;77.52
12211;BME280;6168;42.658;23.298;2022-09-09T08:28:32;64230.13;;;-139.92;74.35
12211;BME280;6168;42.658;23.298;2022-09-09T08:31:04;64157.25;;;-139.92;77.46
12211;BME280;6168;42.658;23.298;2022-09-09T08:33:32;64198.88;;;-139.92;72.90
12211;BME280;6168;42.658;23.298;2022-09-09T08:35:58;64153.09;;;-139.92;73.30
12211;BME280;6168;42.658;23.298;2022-09-09T08:38:25;64215.56;;;-139.92;71.87
12211;BME280;6168;42.658;23.298;2022-09-09T08:40:57;64190.56;;;-139.92;74.11
12211;BME280;6168;42.658;23.298;2022-09-09T08:43:27;64161.41;;;-139.92;70.30
12211;BME280;6168;42.658;23.298;2022-09-09T08:46:00;64173.91;;;-139.92;72.77
12211;BME280;6168;42.658;23.298;2022-09-09T08:48:42;64167.66;;;-139.92;71.07
12211;BME280;6168;42.658;23.298;2022-09-09T08:51:11;64188.47;;;-139.92;70.38
12211;BME280;6168;42.658;23.298;2022-09-09T08:53:42;64194.72;;;-139.92;71.60
12211;BME280;6168;42.658;23.298;2022-09-09T08:56:14;64148.91;;;-139.92;70.09
12211;BME280;6168;42.658;23.298;2022-09-09T08:58:46;64180.16;;;-139.92;68.89
12211;BME280;6168;42.658;23.298;2022-09-09T09:04:38;64163.50;;;-139.92;66.60
12211;BME280;6168;42.658;23.298;2022-09-09T09:07:18;64182.22;;;-139.92;68.17
12211;BME280;6168;42.658;23.298;2022-09-09T09:09:55;64148.91;;;-139.92;65.91
12211;BME280;6168;42.658;23.298;2022-09-09T09:12:28;64128.09;;;-139.92;65.45
12211;BME280;6168;42.658;23.298;2022-09-09T09:14:56;64132.25;;;-139.92;69.92
12211;BME280;6168;42.658;23.298;2022-09-09T09:17:26;64142.66;;;-139.92;67.45
12211;BME280;6168;42.658;23.298;2022-09-09T09:19:57;64130.19;;;-139.92;63.92
12211;BME280;6168;42.658;23.298;2022-09-09T09:22:31;64148.91;;;-139.92;63.01
12211;BME280;6168;42.658;23.298;2022-09-09T09:25:03;64121.84;;;-139.92;62.02
12211;BME280;6168;42.658;23.298;2022-09-09T09:27:40;64169.75;;;-139.92;59.18
12211;BME280;6168;42.658;23.298;2022-09-09T09:30:15;64128.09;;;-139.92;60.96
12211;BME280;6168;42.658;23.298;2022-09-09T09:32:51;64144.75;;;-139.92;62.82
12211;BME280;6168;42.658;23.298;2022-09-09T09:35:19;64146.84;;;-139.92;59.79
12211;BME280;6168;42.658;23.298;2022-09-09T09:37:47;64163.50;;;-139.92;61.40
12211;BME280;6168;42.658;23.298;2022-09-09T09:40:16;64182.22;;;-139.92;60.79
12211;BME280;6168;42.658;23.298;2022-09-09T09:42:52;64153.09;;;-139.92;61.11
12211;BME280;6168;42.658;23.298;2022-09-09T09:45:28;64128.09;;;-139.92;62.80
12211;BME280;6168;42.658;23.298;2022-09-09T09:48:01;64153.09;;;-139.92;60.57
12211;BME280;6168;42.658;23.298;2022-09-09T09:50:30;64161.41;;;-139.92;60.54
12211;BME280;6168;42.658;23.298;2022-09-09T09:52:58;64128.09;;;-139.92;61.61
12211;BME280;6168;42.658;23.298;2022-09-09T09:55:28;64121.84;;;-139.92;59.35
12211;BME280;6168;42.658;23.298;2022-09-09T09:58:03;64130.19;;;-139.92;60.64
12211;BME280;6168;42.658;23.298;2022-09-09T10:00:31;64153.09;;;-139.92;57.60
12211;BME280;6168;42.658;23.298;2022-09-09T10:03:00;64134.34;;;-139.92;58.65
12211;BME280;6168;42.658;23.298;2022-09-09T10:05:28;64140.59;;;-139.92;57.45
12211;BME280;6168;42.658;23.298;2022-09-09T10:08:04;64136.41;;;-139.92;59.77
12211;BME280;6168;42.658;23.298;2022-09-09T10:10:42;64144.75;;;-139.92;59.82
12211;BME280;6168;42.658;23.298;2022-09-09T10:13:20;64153.09;;;-139.92;60.52
12211;BME280;6168;42.658;23.298;2022-09-09T10:16:01;64157.25;;;-139.92;59.46
12211;BME280;6168;42.658;23.298;2022-09-09T10:18:44;64140.59;;;-139.92;58.80
12211;BME280;6168;42.658;23.298;2022-09-09T10:21:16;64163.50;;;-139.92;59.88
12211;BME280;6168;42.658;23.298;2022-09-09T10:23:53;64134.34;;;-139.92;57.62
12211;BME280;6168;42.658;23.298;2022-09-09T10:26:27;64132.25;;;-139.92;60.96
12211;BME280;6168;42.658;23.298;2022-09-09T10:29:06;64121.84;;;-139.92;59.55
12211;BME280;6168;42.658;23.298;2022-09-09T10:31:40;64194.72;;;-139.92;59.55
12211;BME280;6168;42.658;23.298;2022-09-09T10:34:12;64138.50;;;-139.92;61.77
12211;BME280;6168;42.658;23.298;2022-09-09T10:36:46;64115.59;;;-139.92;60.27
12211;BME280;6168;42.658;23.298;2022-09-09T10:39:15;64157.25;;;-139.92;61.84
12211;BME280;6168;42.658;23.298;2022-09-09T10:41:49;64157.25;;;-139.92;62.68
12211;BME280;6168;42.658;23.298;2022-09-09T10:44:20;64123.94;;;-139.92;59.95
12211;BME280;6168;42.658;23.298;2022-09-09T10:49:37;64119.78;;;-139.92;62.59
12211;BME280;6168;42.658;23.298;2022-09-09T10:52:12;64115.59;;;-139.92;60.74
12211;BME280;6168;42.658;23.298;2022-09-09T10:54:43;64134.34;;;-139.92;61.60
12211;BME280;6168;42.658;23.298;2022-09-09T10:57:15;64128.09;;;-139.92;62.39
12211;BME280;6168;42.658;23.298;2022-09-09T11:20:02;64115.59;;;-139.92;61.43
12211;BME280;6168;42.658;23.298;2022-09-09T11:22:33;64092.69;;;-139.92;61.28
12211;BME280;6168;42.658;23.298;2022-09-09T11:25:07;64140.59;;;-139.92;62.94
12211;BME280;6168;42.658;23.298;2022-09-09T11:27:44;64159.31;;;-139.92;63.31
12211;BME280;6168;42.658;23.298;2022-09-09T11:30:18;64134.34;;;-139.92;64.82
12211;BME280;6168;42.658;23.298;2022-09-09T11:33:19;64128.09;;;-139.92;66.40
12211;BME280;6168;42.658;23.298;2022-09-09T11:36:05;64146.84;;;-139.92;63.29
12211;BME280;6168;42.658;23.298;2022-09-09T11:38:41;64107.28;;;-139.92;64.33
12211;BME280;6168;42.658;23.298;2022-09-09T11:41:12;64130.19;;;-139.92;63.63
12211;BME280;6168;42.658;23.298;2022-09-09T11:43:42;64173.91;;;-139.92;63.63
12211;BME280;6168;42.658;23.298;2022-09-09T11:46:10;64078.13;;;-139.92;64.61
12211;BME280;6168;42.658;23.298;2022-09-09T11:48:39;64132.25;;;-139.92;63.19
12211;BME280;6168;42.658;23.298;2022-09-09T11:51:11;64121.84;;;-139.92;64.60
12211;BME280;6168;42.658;23.298;2022-09-09T11:53:49;64105.19;;;-139.92;64.80
12211;BME280;6168;42.658;23.298;2022-09-09T11:56:25;64136.41;;;-139.92;64.32
12211;BME280;6168;42.658;23.298;2022-09-09T11:58:58;64113.53;;;-139.92;65.47
12211;BME280;6168;42.658;23.298;2022-09-09T12:01:39;64151.00;;;-139.92;64.72
12211;BME280;6168;42.658;23.298;2022-09-09T12:04:28;64136.41;;;-139.92;63.95
12211;BME280;6168;42.658;23.298;2022-09-09T12:07:00;64098.94;;;-139.92;61.94
12211;BME280;6168;42.658;23.298;2022-09-09T12:09:33;64098.94;;;-139.92;63.12
12211;BME280;6168;42.658;23.298;2022-09-09T12:12:17;64084.38;;;-139.92;62.84
12211;BME280;6168;42.658;23.298;2022-09-09T12:14:56;64053.13;;;-139.92;62.28
12211;BME280;6168;42.658;23.298;2022-09-09T12:17:26;64080.22;;;-139.92;65.48
12211;BME280;6168;42.658;23.298;2022-09-09T12:20:01;64088.53;;;-139.92;59.52
12211;BME280;6168;42.658;23.298;2022-09-09T12:22:37;64096.88;;;-139.92;60.22
12211;BME280;6168;42.658;23.298;2022-09-09T12:25:16;64044.81;;;-139.92;62.35
12211;BME280;6168;42.658;23.298;2022-09-09T12:27:56;64044.81;;;-139.92;60.48
12211;BME280;6168;42.658;23.298;2022-09-09T12:30:29;64082.28;;;-139.92;60.53
12211;BME280;6168;42.658;23.298;2022-09-09T12:33:02;64040.66;;;-139.92;59.40
12211;BME280;6168;42.658;23.298;2022-09-09T12:35:29;64092.69;;;-139.92;58.31
12211;BME280;6168;42.658;23.298;2022-09-09T12:38:01;64065.63;;;-139.92;59.96
12211;BME280;6168;42.658;23.298;2022-09-09T12:40:30;64107.28;;;-139.92;59.29
12211;BME280;6168;42.658;23.298;2022-09-09T12:42:57;64088.53;;;-139.92;58.75
12211;BME280;6168;42.658;23.298;2022-09-09T12:45:28;64101.03;;;-139.92;59.35
12211;BME280;6168;42.658;23.298;2022-09-09T12:47:58;64084.38;;;-139.92;60.17
12211;BME280;6168;42.658;23.298;2022-09-09T12:50:29;64046.88;;;-139.92;62.06
12211;BME280;6168;42.658;23.298;2022-09-09T12:53:00;64103.09;;;-139.92;61.02
12211;BME280;6168;42.658;23.298;2022-09-09T12:55:30;64071.88;;;-139.92;63.03
12211;BME280;6168;42.658;23.298;2022-09-09T12:57:59;64082.28;;;-139.92;62.74
12211;BME280;6168;42.658;23.298;2022-09-09T13:00:30;64084.38;;;-139.92;63.53
12211;BME280;6168;42.658;23.298;2022-09-09T13:02:58;64092.69;;;-139.92;59.86
12211;BME280;6168;42.658;23.298;2022-09-09T13:05:27;64086.44;;;-139.92;62.26
12211;BME280;6168;42.658;23.298;2022-09-09T13:08:02;64142.66;;;-139.92;62.01
12211;BME280;6168;42.658;23.298;2022-09-09T13:10:32;64071.88;;;-139.92;61.18
12211;BME280;6168;42.658;23.298;2022-09-09T13:13:00;64086.44;;;-139.92;60.08
12211;BME280;6168;42.658;23.298;2022-09-09T13:15:29;64115.59;;;-139.92;59.91
12211;BME280;6168;42.658;23.298;2022-09-09T13:17:58;64138.50;;;-139.92;59.15